sensor_id;sensor_type;location;lat;lon;timestamp;pressure;altitude;pressure_sealevel;temperature;humidity
44531;BME280;30240;47.418;0.700;2022-12-18T00:00:23;100993.6767578125;;;-3.62;95.19
44531;BME280;30240;47.418;0.700;2022-12-18T00:02:48;100997.83325195312;;;-3.55;94.96
44531;BME280;30240;47.418;0.700;2022-12-18T00:05:13;101003.09448242188;;;-3.55;94.89
44531;BME280;30240;47.418;0.700;2022-12-18T00:07:38;101002.25219726562;;;-3.59;94.96
44531;BME280;30240;47.418;0.700;2022-12-18T00:10:04;101002.25219726562;;;-3.59;94.96
44531;BME280;30240;47.418;0.700;2022-12-18T00:12:28;101005.5908203125;;;-3.67;95.1
44531;BME280;30240;47.418;0.700;2022-12-18T00:14:53;101012.78076171875;;;-3.68;95.22
44531;BME280;30240;47.418;0.700;2022-12-18T00:17:19;101013.4765625;;;-3.76;95.34
44531;BME280;30240;47.418;0.700;2022-12-18T00:19:43;101010.18676757812;;;-3.76;95.41
44531;BME280;30240;47.418;0.700;2022-12-18T00:22:08;101009.82055664062;;;-3.76;95.45
44531;BME280;30240;47.418;0.700;2022-12-18T00:24:33;101009.82055664062;;;-3.76;95.45
44531;BME280;30240;47.418;0.700;2022-12-18T00:26:59;101013.7451171875;;;-3.8;95.37
44531;BME280;30240;47.418;0.700;2022-12-18T00:29:23;101009.70458984375;;;-3.84;95.64
44531;BME280;30240;47.418;0.700;2022-12-18T00:31:48;101009.18579101562;;;-3.87;95.81
44531;BME280;30240;47.418;0.700;2022-12-18T00:34:13;101016.40625;;;-3.88;95.91
44531;BME280;30240;47.418;0.700;2022-12-18T00:36:39;101016.40625;;;-3.88;95.91
44531;BME280;30240;47.418;0.700;2022-12-18T00:39:05;101016.99829101562;;;-3.87;95.86
44531;BME280;30240;47.418;0.700;2022-12-18T00:41:28;101010.88256835938;;;-3.84;95.79
44531;BME280;30240;47.418;0.700;2022-12-18T00:43:53;101002.86865234375;;;-3.85;95.76
44531;BME280;30240;47.418;0.700;2022-12-18T00:46:18;101008.85009765625;;;-3.9;95.86
44531;BME280;30240;47.418;0.700;2022-12-18T00:48:43;101008.85009765625;;;-3.9;95.86
44531;BME280;30240;47.418;0.700;2022-12-18T00:51:08;101010.791015625;;;-3.91;95.85
44531;BME280;30240;47.418;0.700;2022-12-18T00:53:33;101020.03173828125;;;-3.92;95.93
44531;BME280;30240;47.418;0.700;2022-12-18T00:55:58;101030.18798828125;;;-3.92;95.89
44531;BME280;30240;47.418;0.700;2022-12-18T00:58:23;101024.85961914062;;;-3.98;96.16
44531;BME280;30240;47.418;0.700;2022-12-18T01:00:49;101024.85961914062;;;-3.98;96.16
44531;BME280;30240;47.418;0.700;2022-12-18T01:03:14;101027.685546875;;;-3.92;95.99
44531;BME280;30240;47.418;0.700;2022-12-18T01:05:39;101037.88452148438;;;-3.98;95.97
44531;BME280;30240;47.418;0.700;2022-12-18T01:08:03;101036.99951171875;;;-3.97;95.75
44531;BME280;30240;47.418;0.700;2022-12-18T01:10:28;101035.9375;;;-4.06;96.13
44531;BME280;30240;47.418;0.700;2022-12-18T01:12:53;101035.9375;;;-4.06;96.13
44531;BME280;30240;47.418;0.700;2022-12-18T01:15:19;101039.00146484375;;;-4.06;96.17
44531;BME280;30240;47.418;0.700;2022-12-18T01:17:44;101031.89086914062;;;-4.06;96.3
44531;BME280;30240;47.418;0.700;2022-12-18T01:20:11;101035.7666015625;;;-4.06;96.28
44531;BME280;30240;47.418;0.700;2022-12-18T01:22:34;101034.00268554688;;;-4.11;96.23
44531;BME280;30240;47.418;0.700;2022-12-18T01:24:58;101034.00268554688;;;-4.11;96.23
44531;BME280;30240;47.418;0.700;2022-12-18T01:27:23;101033.67309570312;;;-4.13;96.25
44531;BME280;30240;47.418;0.700;2022-12-18T01:29:49;101037.29858398438;;;-4.19;96.39
44531;BME280;30240;47.418;0.700;2022-12-18T01:32:14;101037.89672851562;;;-4.2;96.51
44531;BME280;30240;47.418;0.700;2022-12-18T01:34:38;101037.29858398438;;;-4.2;96.76
44531;BME280;30240;47.418;0.700;2022-12-18T01:37:04;101037.29858398438;;;-4.2;96.76
44531;BME280;30240;47.418;0.700;2022-12-18T01:39:29;101035.60791015625;;;-4.19;96.64
44531;BME280;30240;47.418;0.700;2022-12-18T01:41:54;101033.73413085938;;;-4.2;96.63
44531;BME280;30240;47.418;0.700;2022-12-18T01:44:56;101029.51049804688;;;-4.26;96.66
44531;BME280;30240;47.418;0.700;2022-12-18T01:46:43;101021.3134765625;;;-4.26;96.71
44531;BME280;30240;47.418;0.700;2022-12-18T01:49:08;101009.96704101562;;;-4.34;96.94
44531;BME280;30240;47.418;0.700;2022-12-18T01:51:34;101009.96704101562;;;-4.34;96.94
44531;BME280;30240;47.418;0.700;2022-12-18T01:53:59;101003.01513671875;;;-4.34;97.01
44531;BME280;30240;47.418;0.700;2022-12-18T01:56:23;100992.3583984375;;;-4.36;97.11
44531;BME280;30240;47.418;0.700;2022-12-18T01:58:54;100993.73168945312;;;-4.34;97.24
44531;BME280;30240;47.418;0.700;2022-12-18T02:01:14;100991.18041992188;;;-4.42;97.31
44531;BME280;30240;47.418;0.700;2022-12-18T02:03:40;100991.18041992188;;;-4.42;97.31
44531;BME280;30240;47.418;0.700;2022-12-18T02:06:09;100984.01489257812;;;-4.44;97.25
44531;BME280;30240;47.418;0.700;2022-12-18T02:08:32;100980.82885742188;;;-4.44;97.27
44531;BME280;30240;47.418;0.700;2022-12-18T02:10:59;100981.17065429688;;;-4.43;97.33
44531;BME280;30240;47.418;0.700;2022-12-18T02:11:04;100981.17065429688;;;-4.43;97.33
44531;BME280;30240;47.418;0.700;2022-12-18T02:13:23;100981.95190429688;;;-4.39;97.23
44531;BME280;30240;47.418;0.700;2022-12-18T02:13:27;100981.95190429688;;;-4.39;97.23
44531;BME280;30240;47.418;0.700;2022-12-18T02:15:49;100981.95190429688;;;-4.39;97.23
44531;BME280;30240;47.418;0.700;2022-12-18T02:18:11;100990.66162109375;;;-4.47;97.25
44531;BME280;30240;47.418;0.700;2022-12-18T02:20:36;100989.15405273438;;;-4.42;97.41
44531;BME280;30240;47.418;0.700;2022-12-18T02:23:04;100992.60864257812;;;-4.4;97.31
44531;BME280;30240;47.418;0.700;2022-12-18T02:25:39;100990.0634765625;;;-4.46;97.27
44531;BME280;30240;47.418;0.700;2022-12-18T02:27:50;100990.0634765625;;;-4.46;97.27
44531;BME280;30240;47.418;0.700;2022-12-18T02:30:14;101005.37719726562;;;-4.49;97.34
44531;BME280;30240;47.418;0.700;2022-12-18T02:32:40;101004.345703125;;;-4.46;97.43
44531;BME280;30240;47.418;0.700;2022-12-18T02:35:06;101009.18579101562;;;-4.46;97.24
44531;BME280;30240;47.418;0.700;2022-12-18T02:37:30;101005.8837890625;;;-4.54;97.38
44531;BME280;30240;47.418;0.700;2022-12-18T02:39:56;101005.8837890625;;;-4.54;97.38
44531;BME280;30240;47.418;0.700;2022-12-18T02:42:19;101010.0341796875;;;-4.51;97.41
44531;BME280;30240;47.418;0.700;2022-12-18T02:44:45;101011.75537109375;;;-4.56;97.34
44531;BME280;30240;47.418;0.700;2022-12-18T02:47:09;101015.39916992188;;;-4.56;97.23
44531;BME280;30240;47.418;0.700;2022-12-18T02:49:36;101010.99853515625;;;-4.57;97.22
44531;BME280;30240;47.418;0.700;2022-12-18T02:52:05;101010.99853515625;;;-4.57;97.22
44531;BME280;30240;47.418;0.700;2022-12-18T02:54:42;101011.52954101562;;;-4.61;97.31
44531;BME280;30240;47.418;0.700;2022-12-18T02:54:50;101011.52954101562;;;-4.61;97.31
44531;BME280;30240;47.418;0.700;2022-12-18T02:56:50;101008.82568359375;;;-4.64;97.23
44531;BME280;30240;47.418;0.700;2022-12-18T02:59:15;101003.0029296875;;;-4.6;97.27
44531;BME280;30240;47.418;0.700;2022-12-18T03:01:43;100997.07641601562;;;-4.58;97.32
44531;BME280;30240;47.418;0.700;2022-12-18T03:04:07;100997.07641601562;;;-4.58;97.32
44531;BME280;30240;47.418;0.700;2022-12-18T03:06:32;101001.06201171875;;;-4.58;97.03
44531;BME280;30240;47.418;0.700;2022-12-18T03:08:57;100999.0234375;;;-4.65;97.22
44531;BME280;30240;47.418;0.700;2022-12-18T03:11:19;100996.98486328125;;;-4.6;97.21
44531;BME280;30240;47.418;0.700;2022-12-18T03:13:46;100999.67041015625;;;-4.61;97.09
44531;BME280;30240;47.418;0.700;2022-12-18T03:16:11;100999.67041015625;;;-4.61;97.09
44531;BME280;30240;47.418;0.700;2022-12-18T03:18:36;101004.87670898438;;;-4.57;97.0
44531;BME280;30240;47.418;0.700;2022-12-18T03:21:00;101004.79125976562;;;-4.49;96.76
44531;BME280;30240;47.418;0.700;2022-12-18T03:23:27;101001.3916015625;;;-4.49;96.82
44531;BME280;30240;47.418;0.700;2022-12-18T03:25:51;101001.45263671875;;;-4.47;96.78
44531;BME280;30240;47.418;0.700;2022-12-18T03:28:16;101000.439453125;;;-4.44;96.54
44531;BME280;30240;47.418;0.700;2022-12-18T03:30:40;101000.439453125;;;-4.44;96.54
44531;BME280;30240;47.418;0.700;2022-12-18T03:33:06;100996.39892578125;;;-4.39;96.62
44531;BME280;30240;47.418;0.700;2022-12-18T03:35:32;100992.24853515625;;;-4.27;96.29
44531;BME280;30240;47.418;0.700;2022-12-18T03:37:53;100981.97021484375;;;-4.34;96.27
44531;BME280;30240;47.418;0.700;2022-12-18T03:40:20;100979.638671875;;;-4.32;96.27
44531;BME280;30240;47.418;0.700;2022-12-18T03:42:46;100979.638671875;;;-4.32;96.27
44531;BME280;30240;47.418;0.700;2022-12-18T03:45:11;100975.94604492188;;;-4.3;96.33
44531;BME280;30240;47.418;0.700;2022-12-18T03:47:38;100970.81298828125;;;-4.22;96.11
44531;BME280;30240;47.418;0.700;2022-12-18T03:50:05;100980.15747070312;;;-4.32;95.99
44531;BME280;30240;47.418;0.700;2022-12-18T03:52:27;100982.33032226562;;;-4.34;96.1
44531;BME280;30240;47.418;0.700;2022-12-18T03:54:49;100982.33032226562;;;-4.34;96.1
44531;BME280;30240;47.418;0.700;2022-12-18T03:57:16;100986.9384765625;;;-4.39;96.08
44531;BME280;30240;47.418;0.700;2022-12-18T03:59:39;100985.71166992188;;;-4.32;96.15
44531;BME280;30240;47.418;0.700;2022-12-18T04:02:04;100997.05200195312;;;-4.22;96.06
44531;BME280;30240;47.418;0.700;2022-12-18T04:04:30;101007.33032226562;;;-4.25;95.67
44531;BME280;30240;47.418;0.700;2022-12-18T04:06:54;101007.33032226562;;;-4.25;95.67
44531;BME280;30240;47.418;0.700;2022-12-18T04:09:19;101007.8125;;;-4.23;95.84
44531;BME280;30240;47.418;0.700;2022-12-18T04:11:43;101002.92358398438;;;-4.12;95.62
44531;BME280;30240;47.418;0.700;2022-12-18T04:14:09;101003.2958984375;;;-4.02;95.37
44531;BME280;30240;47.418;0.700;2022-12-18T04:16:33;101005.859375;;;-4.08;95.21
44531;BME280;30240;47.418;0.700;2022-12-18T04:18:58;101005.859375;;;-4.08;95.21
44531;BME280;30240;47.418;0.700;2022-12-18T04:21:23;100995.93505859375;;;-4.18;95.36
44531;BME280;30240;47.418;0.700;2022-12-18T04:23:49;101004.98657226562;;;-4.06;95.39
44531;BME280;30240;47.418;0.700;2022-12-18T04:26:14;101014.80712890625;;;-4.09;95.07
44531;BME280;30240;47.418;0.700;2022-12-18T04:28:38;101012.939453125;;;-3.94;94.98
44531;BME280;30240;47.418;0.700;2022-12-18T04:31:04;101012.939453125;;;-3.94;94.98
44531;BME280;30240;47.418;0.700;2022-12-18T04:33:29;101006.75048828125;;;-3.88;94.64
44531;BME280;30240;47.418;0.700;2022-12-18T04:35:54;101011.74926757812;;;-3.9;94.55
44531;BME280;30240;47.418;0.700;2022-12-18T04:38:18;101008.04443359375;;;-3.8;94.44
44531;BME280;30240;47.418;0.700;2022-12-18T04:40:43;101013.53149414062;;;-3.83;94.58
44531;BME280;30240;47.418;0.700;2022-12-18T04:43:09;101013.53149414062;;;-3.83;94.58
44531;BME280;30240;47.418;0.700;2022-12-18T04:45:33;101005.15747070312;;;-3.87;94.48
44531;BME280;30240;47.418;0.700;2022-12-18T04:47:59;101002.69775390625;;;-3.85;94.56
44531;BME280;30240;47.418;0.700;2022-12-18T04:50:23;101012.255859375;;;-3.74;94.44
44531;BME280;30240;47.418;0.700;2022-12-18T04:52:48;101023.37646484375;;;-3.84;94.27
44531;BME280;30240;47.418;0.700;2022-12-18T04:55:13;101028.564453125;;;-3.85;94.49
44531;BME280;30240;47.418;0.700;2022-12-18T04:57:38;101028.564453125;;;-3.85;94.49
44531;BME280;30240;47.418;0.700;2022-12-18T05:00:04;101028.88793945312;;;-3.81;94.61
44531;BME280;30240;47.418;0.700;2022-12-18T05:02:28;101021.45385742188;;;-3.85;94.63
44531;BME280;30240;47.418;0.700;2022-12-18T05:04:53;101016.48559570312;;;-3.81;94.52
44531;BME280;30240;47.418;0.700;2022-12-18T05:07:18;101022.42431640625;;;-3.74;94.4
44531;BME280;30240;47.418;0.700;2022-12-18T05:09:43;101022.42431640625;;;-3.74;94.4
44531;BME280;30240;47.418;0.700;2022-12-18T05:12:08;101026.47094726562;;;-3.7;94.17
44531;BME280;30240;47.418;0.700;2022-12-18T05:14:33;101022.08862304688;;;-3.74;93.95
44531;BME280;30240;47.418;0.700;2022-12-18T05:16:58;101027.50854492188;;;-3.6;93.78
44531;BME280;30240;47.418;0.700;2022-12-18T05:19:23;101024.072265625;;;-3.73;93.84
44531;BME280;30240;47.418;0.700;2022-12-18T05:21:48;101024.072265625;;;-3.73;93.84
44531;BME280;30240;47.418;0.700;2022-12-18T05:24:14;101030.67016601562;;;-3.67;93.97
44531;BME280;30240;47.418;0.700;2022-12-18T05:26:38;101043.53637695312;;;-3.59;93.58
44531;BME280;30240;47.418;0.700;2022-12-18T05:29:03;101052.50854492188;;;-3.48;93.45
44531;BME280;30240;47.418;0.700;2022-12-18T05:31:29;101053.09448242188;;;-3.41;92.96
44531;BME280;30240;47.418;0.700;2022-12-18T05:33:53;101053.09448242188;;;-3.41;92.96
44531;BME280;30240;47.418;0.700;2022-12-18T05:36:18;101053.67431640625;;;-3.45;92.89
44531;BME280;30240;47.418;0.700;2022-12-18T05:38:43;101053.6376953125;;;-3.36;92.81
44531;BME280;30240;47.418;0.700;2022-12-18T05:41:09;101048.91967773438;;;-3.46;92.7
44531;BME280;30240;47.418;0.700;2022-12-18T05:43:34;101053.48510742188;;;-3.57;93.1
44531;BME280;30240;47.418;0.700;2022-12-18T05:46:02;101053.48510742188;;;-3.57;93.1
44531;BME280;30240;47.418;0.700;2022-12-18T05:48:24;101041.54052734375;;;-3.62;93.31
44531;BME280;30240;47.418;0.700;2022-12-18T05:50:49;101045.40405273438;;;-3.52;93.14
44531;BME280;30240;47.418;0.700;2022-12-18T05:53:15;101043.84155273438;;;-3.46;92.82
44531;BME280;30240;47.418;0.700;2022-12-18T05:55:40;101041.31469726562;;;-3.6;92.87
44531;BME280;30240;47.418;0.700;2022-12-18T05:58:05;101041.31469726562;;;-3.6;92.87
44531;BME280;30240;47.418;0.700;2022-12-18T06:00:29;101039.00146484375;;;-3.57;93.01
44531;BME280;30240;47.418;0.700;2022-12-18T06:02:53;101033.85009765625;;;-3.63;93.09
44531;BME280;30240;47.418;0.700;2022-12-18T06:05:18;101034.9853515625;;;-3.64;93.32
44531;BME280;30240;47.418;0.700;2022-12-18T06:07:43;101042.41333007812;;;-3.68;93.44
44531;BME280;30240;47.418;0.700;2022-12-18T06:10:08;101042.41333007812;;;-3.68;93.44
44531;BME280;30240;47.418;0.700;2022-12-18T06:12:33;101033.29467773438;;;-3.66;93.39
44531;BME280;30240;47.418;0.700;2022-12-18T06:14:58;101022.81494140625;;;-3.7;93.41
44531;BME280;30240;47.418;0.700;2022-12-18T06:17:27;101024.609375;;;-3.76;93.51
44531;BME280;30240;47.418;0.700;2022-12-18T06:19:48;101028.31420898438;;;-3.78;93.63
44531;BME280;30240;47.418;0.700;2022-12-18T06:22:13;101028.99780273438;;;-3.78;93.58
44531;BME280;30240;47.418;0.700;2022-12-18T06:24:38;101028.99780273438;;;-3.78;93.58
44531;BME280;30240;47.418;0.700;2022-12-18T06:27:03;101024.60327148438;;;-3.84;93.56
44531;BME280;30240;47.418;0.700;2022-12-18T06:29:28;101020.703125;;;-3.73;93.47
44531;BME280;30240;47.418;0.700;2022-12-18T06:31:53;101022.79663085938;;;-3.8;93.18
44531;BME280;30240;47.418;0.700;2022-12-18T06:34:18;101015.65551757812;;;-3.74;93.25
44531;BME280;30240;47.418;0.700;2022-12-18T06:36:43;101015.65551757812;;;-3.74;93.25
44531;BME280;30240;47.418;0.700;2022-12-18T06:39:08;101014.51416015625;;;-3.76;93.07
44531;BME280;30240;47.418;0.700;2022-12-18T06:41:34;101011.77368164062;;;-3.77;93.07
44531;BME280;30240;47.418;0.700;2022-12-18T06:43:58;101006.32934570312;;;-3.81;93.19
44531;BME280;30240;47.418;0.700;2022-12-18T06:46:23;100998.828125;;;-3.81;93.2
44531;BME280;30240;47.418;0.700;2022-12-18T06:48:49;100998.828125;;;-3.81;93.2
44531;BME280;30240;47.418;0.700;2022-12-18T06:51:15;100997.30224609375;;;-3.81;93.28
44531;BME280;30240;47.418;0.700;2022-12-18T06:53:38;100990.8447265625;;;-3.74;92.98
44531;BME280;30240;47.418;0.700;2022-12-18T06:56:05;100997.79663085938;;;-3.74;92.86
44531;BME280;30240;47.418;0.700;2022-12-18T06:58:29;100991.162109375;;;-3.78;92.74
44531;BME280;30240;47.418;0.700;2022-12-18T07:00:53;100991.162109375;;;-3.78;92.74
44531;BME280;30240;47.418;0.700;2022-12-18T07:03:18;100982.41577148438;;;-3.76;92.7
44531;BME280;30240;47.418;0.700;2022-12-18T07:05:44;100986.4990234375;;;-3.77;92.65
44531;BME280;30240;47.418;0.700;2022-12-18T07:08:09;100978.43627929688;;;-3.77;92.56
44531;BME280;30240;47.418;0.700;2022-12-18T07:10:34;100972.10693359375;;;-3.78;92.7
44531;BME280;30240;47.418;0.700;2022-12-18T07:12:59;100972.10693359375;;;-3.78;92.7
44531;BME280;30240;47.418;0.700;2022-12-18T07:15:24;100973.46801757812;;;-3.74;92.53
44531;BME280;30240;47.418;0.700;2022-12-18T07:17:49;100965.73486328125;;;-3.7;92.34
44531;BME280;30240;47.418;0.700;2022-12-18T07:20:14;100973.01635742188;;;-3.78;92.64
44531;BME280;30240;47.418;0.700;2022-12-18T07:22:39;100976.84326171875;;;-3.8;92.64
44531;BME280;30240;47.418;0.700;2022-12-18T07:25:04;100976.84326171875;;;-3.8;92.64
44531;BME280;30240;47.418;0.700;2022-12-18T07:27:29;100976.47705078125;;;-3.81;92.6
44531;BME280;30240;47.418;0.700;2022-12-18T07:29:53;100979.71801757812;;;-3.74;92.57
44531;BME280;30240;47.418;0.700;2022-12-18T07:32:19;100973.5595703125;;;-3.81;92.75
44531;BME280;30240;47.418;0.700;2022-12-18T07:34:44;100971.09375;;;-3.88;92.86
44531;BME280;30240;47.418;0.700;2022-12-18T07:37:08;100971.09375;;;-3.88;92.86
44531;BME280;30240;47.418;0.700;2022-12-18T07:39:34;100976.8310546875;;;-3.74;92.75
44531;BME280;30240;47.418;0.700;2022-12-18T07:41:58;100982.9833984375;;;-3.81;92.84
44531;BME280;30240;47.418;0.700;2022-12-18T07:44:23;100975.81176757812;;;-3.68;92.55
44531;BME280;30240;47.418;0.700;2022-12-18T07:46:48;100983.14208984375;;;-3.57;92.49
44531;BME280;30240;47.418;0.700;2022-12-18T07:49:14;100983.14208984375;;;-3.57;92.49
44531;BME280;30240;47.418;0.700;2022-12-18T07:51:39;100978.9306640625;;;-3.5;91.73
44531;BME280;30240;47.418;0.700;2022-12-18T07:54:04;100975.14038085938;;;-3.73;92.1
44531;BME280;30240;47.418;0.700;2022-12-18T07:56:29;100978.14331054688;;;-3.49;92.03
44531;BME280;30240;47.418;0.700;2022-12-18T07:58:54;100967.48657226562;;;-3.56;91.85
44531;BME280;30240;47.418;0.700;2022-12-18T08:01:19;100966.59545898438;;;-3.57;91.91
44531;BME280;30240;47.418;0.700;2022-12-18T08:03:44;100966.59545898438;;;-3.57;91.91
44531;BME280;30240;47.418;0.700;2022-12-18T08:06:09;100975.35400390625;;;-3.45;91.93
44531;BME280;30240;47.418;0.700;2022-12-18T08:08:34;100978.57666015625;;;-3.34;91.61
44531;BME280;30240;47.418;0.700;2022-12-18T08:10:59;100980.54809570312;;;-3.22;91.24
44531;BME280;30240;47.418;0.700;2022-12-18T08:13:24;100973.86474609375;;;-3.42;91.22
44531;BME280;30240;47.418;0.700;2022-12-18T08:15:55;100973.86474609375;;;-3.42;91.22
44531;BME280;30240;47.418;0.700;2022-12-18T08:18:13;100983.43505859375;;;-3.35;91.31
44531;BME280;30240;47.418;0.700;2022-12-18T08:20:39;100975.86059570312;;;-3.19;90.78
44531;BME280;30240;47.418;0.700;2022-12-18T08:23:04;100973.66943359375;;;-3.12;90.46
44531;BME280;30240;47.418;0.700;2022-12-18T08:25:28;100977.48413085938;;;-3.11;90.56
44531;BME280;30240;47.418;0.700;2022-12-18T08:27:54;100977.48413085938;;;-3.11;90.56
44531;BME280;30240;47.418;0.700;2022-12-18T08:30:19;100974.01733398438;;;-3.07;90.58
44531;BME280;30240;47.418;0.700;2022-12-18T08:32:44;100980.712890625;;;-2.94;90.37
44531;BME280;30240;47.418;0.700;2022-12-18T08:35:09;100983.18481445312;;;-2.97;90.35
44531;BME280;30240;47.418;0.700;2022-12-18T08:37:33;100975.3173828125;;;-2.84;89.68
44531;BME280;30240;47.418;0.700;2022-12-18T08:39:59;100975.3173828125;;;-2.84;89.68
44531;BME280;30240;47.418;0.700;2022-12-18T08:42:24;100972.1435546875;;;-2.86;89.54
44531;BME280;30240;47.418;0.700;2022-12-18T08:44:49;100975.439453125;;;-2.96;89.85
44531;BME280;30240;47.418;0.700;2022-12-18T08:47:13;100971.23413085938;;;-2.82;89.56
44531;BME280;30240;47.418;0.700;2022-12-18T08:49:38;100980.23681640625;;;-2.33;89.03
44531;BME280;30240;47.418;0.700;2022-12-18T08:52:03;100980.23681640625;;;-2.33;89.03
44531;BME280;30240;47.418;0.700;2022-12-18T08:54:29;100979.52880859375;;;-2.68;88.86
44531;BME280;30240;47.418;0.700;2022-12-18T08:56:54;100988.97705078125;;;-2.55;88.98
44531;BME280;30240;47.418;0.700;2022-12-18T08:59:19;100981.34155273438;;;-2.47;88.93
44531;BME280;30240;47.418;0.700;2022-12-18T09:01:44;100976.30615234375;;;-2.59;88.89
44531;BME280;30240;47.418;0.700;2022-12-18T09:04:09;100976.30615234375;;;-2.59;88.89
44531;BME280;30240;47.418;0.700;2022-12-18T09:06:34;100979.9560546875;;;-2.36;88.93
44531;BME280;30240;47.418;0.700;2022-12-18T09:08:59;100976.01318359375;;;-2.51;88.76
44531;BME280;30240;47.418;0.700;2022-12-18T09:11:25;100986.77978515625;;;-2.38;88.67
44531;BME280;30240;47.418;0.700;2022-12-18T09:13:49;100989.31274414062;;;-2.42;88.51
44531;BME280;30240;47.418;0.700;2022-12-18T09:16:14;100989.31274414062;;;-2.42;88.51
44531;BME280;30240;47.418;0.700;2022-12-18T09:18:38;100988.29956054688;;;-2.26;88.7
44531;BME280;30240;47.418;0.700;2022-12-18T09:21:07;100983.8134765625;;;-2.11;88.55
44531;BME280;30240;47.418;0.700;2022-12-18T09:23:29;100982.53173828125;;;-2.09;87.99
44531;BME280;30240;47.418;0.700;2022-12-18T09:25:58;100978.76586914062;;;-2.06;88.28
44531;BME280;30240;47.418;0.700;2022-12-18T09:28:18;100977.54516601562;;;-1.93;87.92
44531;BME280;30240;47.418;0.700;2022-12-18T09:30:46;100977.54516601562;;;-1.93;87.92
44531;BME280;30240;47.418;0.700;2022-12-18T09:33:08;100972.705078125;;;-1.98;87.65
44531;BME280;30240;47.418;0.700;2022-12-18T09:35:36;100971.59423828125;;;-1.96;87.77
44531;BME280;30240;47.418;0.700;2022-12-18T09:37:58;100969.775390625;;;-1.83;87.39
44531;BME280;30240;47.418;0.700;2022-12-18T09:40:26;100974.4873046875;;;-1.54;87.2
44531;BME280;30240;47.418;0.700;2022-12-18T09:42:52;100974.4873046875;;;-1.54;87.2
44531;BME280;30240;47.418;0.700;2022-12-18T09:45:14;100976.92260742188;;;-1.36;86.7
44531;BME280;30240;47.418;0.700;2022-12-18T09:47:39;100976.220703125;;;-1.25;86.5
44531;BME280;30240;47.418;0.700;2022-12-18T09:50:07;100977.47802734375;;;-0.91;85.86
44531;BME280;30240;47.418;0.700;2022-12-18T09:50:16;100977.47802734375;;;-0.91;85.86
44531;BME280;30240;47.418;0.700;2022-12-18T09:52:32;100979.91943359375;;;-0.88;85.25
44531;BME280;30240;47.418;0.700;2022-12-18T09:54:58;100979.91943359375;;;-0.88;85.25
44531;BME280;30240;47.418;0.700;2022-12-18T09:57:20;100984.65576171875;;;-1.04;85.09
44531;BME280;30240;47.418;0.700;2022-12-18T09:59:46;100985.5712890625;;;-0.85;85.15
44531;BME280;30240;47.418;0.700;2022-12-18T10:02:14;100971.90551757812;;;-0.95;84.86
44531;BME280;30240;47.418;0.700;2022-12-18T10:04:34;100969.76318359375;;;-0.76;85.0
44531;BME280;30240;47.418;0.700;2022-12-18T10:07:02;100969.76318359375;;;-0.76;85.0
44531;BME280;30240;47.418;0.700;2022-12-18T10:09:30;100958.39233398438;;;-0.74;85.15
44531;BME280;30240;47.418;0.700;2022-12-18T10:09:33;100958.39233398438;;;-0.74;85.15
44531;BME280;30240;47.418;0.700;2022-12-18T10:11:53;100965.234375;;;-0.56;85.16
44531;BME280;30240;47.418;0.700;2022-12-18T10:14:20;100965.92407226562;;;-0.49;84.56
44531;BME280;30240;47.418;0.700;2022-12-18T10:16:46;100968.603515625;;;-0.4;84.68
44531;BME280;30240;47.418;0.700;2022-12-18T10:16:52;100968.603515625;;;-0.4;84.68
44531;BME280;30240;47.418;0.700;2022-12-18T10:19:18;100968.603515625;;;-0.4;84.68
44531;BME280;30240;47.418;0.700;2022-12-18T10:19:26;100968.603515625;;;-0.4;84.68
44531;BME280;30240;47.418;0.700;2022-12-18T10:21:33;100972.83325195312;;;-0.35;84.89
44531;BME280;30240;47.418;0.700;2022-12-18T10:23:57;100972.14965820312;;;-0.32;84.35
44531;BME280;30240;47.418;0.700;2022-12-18T10:24:02;100972.14965820312;;;-0.32;84.35
44531;BME280;30240;47.418;0.700;2022-12-18T10:24:09;100972.14965820312;;;-0.32;84.35
44531;BME280;30240;47.418;0.700;2022-12-18T10:26:19;100980.38940429688;;;-0.3;84.69
44531;BME280;30240;47.418;0.700;2022-12-18T10:28:44;100979.38842773438;;;-0.28;84.35
44531;BME280;30240;47.418;0.700;2022-12-18T10:31:14;100979.38842773438;;;-0.28;84.35
44531;BME280;30240;47.418;0.700;2022-12-18T10:33:34;100974.93896484375;;;-0.11;84.04
44531;BME280;30240;47.418;0.700;2022-12-18T10:35:59;100962.64038085938;;;-0.14;84.28
44531;BME280;30240;47.418;0.700;2022-12-18T10:38:26;100954.3212890625;;;0.06;84.61
44531;BME280;30240;47.418;0.700;2022-12-18T10:40:51;100953.20434570312;;;0.07;84.42
44531;BME280;30240;47.418;0.700;2022-12-18T10:43:15;100953.20434570312;;;0.07;84.42
44531;BME280;30240;47.418;0.700;2022-12-18T10:45:39;100950.50659179688;;;0.17;84.41
44531;BME280;30240;47.418;0.700;2022-12-18T10:48:04;100945.17211914062;;;0.17;84.57
44531;BME280;30240;47.418;0.700;2022-12-18T10:50:30;100949.27978515625;;;0.15;84.7
44531;BME280;30240;47.418;0.700;2022-12-18T10:52:55;100949.462890625;;;0.18;84.48
44531;BME280;30240;47.418;0.700;2022-12-18T10:55:19;100949.462890625;;;0.18;84.48
44531;BME280;30240;47.418;0.700;2022-12-18T10:57:44;100946.11206054688;;;0.27;84.66
44531;BME280;30240;47.418;0.700;2022-12-18T11:00:22;100947.47924804688;;;0.27;84.82